createdAt,value
2023-03-11T00:00:14.689Z,0.00
2023-03-11T00:01:14.665Z,0.00
2023-03-11T00:02:14.684Z,0.00
2023-03-11T00:03:14.620Z,0.00
2023-03-11T00:04:14.607Z,0.00
2023-03-11T00:05:14.663Z,0.00
2023-03-11T00:06:14.603Z,0.00
2023-03-11T00:07:14.615Z,0.00
2023-03-11T00:08:14.593Z,0.00
2023-03-11T00:09:14.553Z,0.00
2023-03-11T00:10:14.568Z,0.00
2023-03-11T00:11:14.534Z,0.00
2023-03-11T00:12:14.528Z,0.00
2023-03-11T00:13:14.520Z,0.00
2023-03-11T00:14:14.508Z,0.00
2023-03-11T00:15:14.518Z,0.00
2023-03-11T00:16:14.551Z,0.00
2023-03-11T00:17:14.484Z,0.00
2023-03-11T00:18:14.450Z,0.00
2023-03-11T00:19:14.446Z,0.00
2023-03-11T00:20:14.439Z,0.00
2023-03-11T00:21:14.452Z,0.00
2023-03-11T00:22:14.406Z,0.00
2023-03-11T00:23:14.439Z,0.00
2023-03-11T00:24:14.384Z,0.00
2023-03-11T00:25:14.382Z,0.00
2023-03-11T00:26:14.375Z,0.00
2023-03-11T00:27:14.351Z,0.00
2023-03-11T00:28:14.337Z,0.00
2023-03-11T00:29:14.341Z,0.00
2023-03-11T00:30:14.316Z,0.00
2023-03-11T00:31:14.405Z,0.00
2023-03-11T00:32:14.344Z,0.00
2023-03-11T00:33:14.284Z,0.00
2023-03-11T00:34:14.266Z,0.00
2023-03-11T00:35:14.263Z,0.00
2023-03-11T00:36:14.274Z,0.00
2023-03-11T00:37:14.266Z,0.00
2023-03-11T00:38:14.237Z,0.00
2023-03-11T00:39:14.250Z,0.00
2023-03-11T00:40:14.210Z,0.00
2023-03-11T00:41:14.190Z,0.00
2023-03-11T00:42:14.175Z,0.00
2023-03-11T00:43:14.200Z,0.00
2023-03-11T00:44:14.173Z,0.00
2023-03-11T00:45:14.155Z,0.00
2023-03-11T00:46:14.191Z,0.00
2023-03-11T00:47:14.124Z,0.00
2023-03-11T00:48:14.147Z,0.00
2023-03-11T00:49:14.115Z,0.00
2023-03-11T00:50:14.115Z,0.00
2023-03-11T00:51:14.103Z,0.00
2023-03-11T00:52:14.061Z,0.00
2023-03-11T00:53:14.081Z,0.00
2023-03-11T00:54:14.041Z,0.00
2023-03-11T00:55:14.091Z,0.00
2023-03-11T00:56:14.021Z,0.00
2023-03-11T00:57:14.010Z,0.00
2023-03-11T00:58:14.037Z,0.00
2023-03-11T00:59:13.998Z,0.00
2023-03-11T01:00:13.987Z,0.00
2023-03-11T01:01:14.004Z,0.00
2023-03-11T01:02:13.952Z,0.00
2023-03-11T01:03:13.955Z,0.00
2023-03-11T01:04:14.036Z,0.00
2023-03-11T01:05:13.920Z,0.00
2023-03-11T01:06:13.941Z,0.00
2023-03-11T01:07:13.914Z,0.00
2023-03-11T01:08:13.895Z,0.00
2023-03-11T01:09:13.874Z,0.00
2023-03-11T01:10:13.896Z,0.00
2023-03-11T01:11:13.886Z,0.00
2023-03-11T01:12:13.834Z,0.00
2023-03-11T01:13:13.852Z,0.00
2023-03-11T01:14:13.846Z,0.00
2023-03-11T01:15:13.806Z,0.00
2023-03-11T01:16:13.885Z,0.00
2023-03-11T01:17:13.801Z,0.00
2023-03-11T01:18:13.767Z,0.00
2023-03-11T01:19:13.792Z,0.00
2023-03-11T01:20:13.744Z,0.00
2023-03-11T01:21:13.738Z,0.00
2023-03-11T01:22:13.721Z,0.00
2023-03-11T01:23:13.732Z,0.00
2023-03-11T01:24:13.727Z,0.00
2023-03-11T01:25:13.692Z,0.00
2023-03-11T01:26:13.678Z,0.00
2023-03-11T01:27:13.709Z,0.00
2023-03-11T01:28:13.666Z,0.00
2023-03-11T01:29:13.662Z,0.00
2023-03-11T01:30:13.708Z,0.00
2023-03-11T01:31:13.712Z,0.00
2023-03-11T01:32:13.733Z,0.00
2023-03-11T01:33:13.602Z,0.00
2023-03-11T01:34:13.595Z,0.00
2023-03-11T01:35:13.577Z,0.00
2023-03-11T01:36:13.567Z,0.00
2023-03-11T01:37:13.560Z,0.00
2023-03-11T01:38:13.541Z,0.00
2023-03-11T01:39:13.559Z,0.00
2023-03-11T01:40:13.517Z,0.00
2023-03-11T01:41:13.511Z,0.00
2023-03-11T01:42:13.505Z,0.00
2023-03-11T01:43:13.542Z,0.00
2023-03-11T01:44:13.497Z,0.00
2023-03-11T01:45:13.477Z,0.00
2023-03-11T01:46:13.555Z,0.00
2023-03-11T01:47:13.452Z,0.00
2023-03-11T01:48:14.081Z,0.00
2023-03-11T01:49:13.447Z,0.00
2023-03-11T01:50:13.412Z,0.00
2023-03-11T01:51:13.411Z,0.00
2023-03-11T01:52:13.391Z,0.00
2023-03-11T01:53:13.374Z,0.00
2023-03-11T01:54:13.380Z,0.00
2023-03-11T01:55:13.362Z,0.00
2023-03-11T01:56:13.332Z,0.00
2023-03-11T01:57:13.347Z,0.00
2023-03-11T01:58:13.323Z,0.00
2023-03-11T01:59:13.349Z,0.00
2023-03-11T02:00:13.304Z,0.00
2023-03-11T02:01:13.278Z,0.00
2023-03-11T02:02:13.389Z,0.00
2023-03-11T02:03:13.313Z,0.00
2023-03-11T02:04:13.268Z,0.00
2023-03-11T02:05:13.234Z,0.00
2023-03-11T02:06:13.219Z,0.00
2023-03-11T02:07:13.224Z,0.00
2023-03-11T02:08:13.197Z,0.00
2023-03-11T02:09:13.215Z,0.00
2023-03-11T02:10:13.193Z,0.00
2023-03-11T02:11:13.174Z,0.00
2023-03-11T02:12:13.150Z,0.00
2023-03-11T02:13:13.177Z,0.00
2023-03-11T02:14:13.144Z,0.00
2023-03-11T02:15:13.144Z,0.00
2023-03-11T02:16:13.152Z,0.00
2023-03-11T02:17:13.119Z,0.00
2023-03-11T02:18:13.092Z,0.00
2023-03-11T02:19:13.115Z,0.00
2023-03-11T02:20:13.068Z,0.00
2023-03-11T02:21:13.077Z,0.00
2023-03-11T02:22:13.059Z,0.00
2023-03-11T02:23:13.059Z,0.00
2023-03-11T02:24:13.059Z,0.00
2023-03-11T02:25:13.016Z,0.00
2023-03-11T02:26:13.021Z,0.00
2023-03-11T02:27:12.993Z,0.00
2023-03-11T02:28:12.992Z,0.00
2023-03-11T02:29:12.999Z,0.00
2023-03-11T02:30:12.997Z,0.00
2023-03-11T02:31:13.077Z,0.00
2023-03-11T02:32:12.963Z,0.00
2023-03-11T02:33:12.941Z,0.00
2023-03-11T02:34:12.948Z,0.00
2023-03-11T02:35:12.906Z,0.00
2023-03-11T02:36:12.983Z,0.00
2023-03-11T02:37:12.904Z,0.00
2023-03-11T02:38:12.891Z,0.00
2023-03-11T02:39:12.888Z,0.00
2023-03-11T02:40:12.860Z,0.00
2023-03-11T02:41:12.837Z,0.00
2023-03-11T02:42:12.856Z,0.00
2023-03-11T02:43:12.817Z,0.00
2023-03-11T02:44:12.817Z,0.00
2023-03-11T02:45:12.810Z,0.00
2023-03-11T02:46:12.775Z,0.00
2023-03-11T02:47:12.814Z,0.00
2023-03-11T02:48:12.753Z,0.00
2023-03-11T02:49:12.774Z,0.00
2023-03-11T02:50:12.741Z,0.00
2023-03-11T02:51:12.734Z,0.00
2023-03-11T02:52:12.710Z,0.00
2023-03-11T02:53:12.720Z,0.00
2023-03-11T02:54:12.716Z,0.00
2023-03-11T02:55:12.686Z,0.00
2023-03-11T02:56:12.660Z,0.00
2023-03-11T02:57:12.671Z,0.00
2023-03-11T02:58:12.646Z,0.00
2023-03-11T02:59:12.663Z,0.00
2023-03-11T03:00:12.626Z,0.00
2023-03-11T03:01:12.674Z,0.00
2023-03-11T03:02:12.607Z,0.00
2023-03-11T03:03:12.621Z,0.00
2023-03-11T03:04:12.648Z,0.00
2023-03-11T03:05:12.572Z,0.00
2023-03-11T03:06:12.565Z,0.00
2023-03-11T03:07:12.551Z,0.00
2023-03-11T03:08:12.533Z,0.00
2023-03-11T03:09:12.534Z,0.00
2023-03-11T03:10:12.497Z,0.00
2023-03-11T03:11:12.505Z,0.00
2023-03-11T03:12:12.477Z,0.00
2023-03-11T03:13:12.479Z,0.00
2023-03-11T03:14:12.468Z,0.00
2023-03-11T03:15:12.446Z,0.00
2023-03-11T03:16:12.522Z,0.00
2023-03-11T03:17:12.488Z,0.00
2023-03-11T03:18:12.422Z,0.00
2023-03-11T03:19:12.446Z,0.00
2023-03-11T03:20:12.389Z,0.00
2023-03-11T03:21:12.378Z,0.00
2023-03-11T03:22:12.379Z,0.00
2023-03-11T03:23:12.371Z,0.00
2023-03-11T03:24:12.372Z,0.00
2023-03-11T03:25:12.349Z,0.00
2023-03-11T03:26:12.318Z,0.00
2023-03-11T03:27:12.324Z,0.00
2023-03-11T03:28:12.306Z,0.00
2023-03-11T03:29:12.318Z,0.00
2023-03-11T03:30:12.285Z,0.00
2023-03-11T03:31:12.272Z,0.00
2023-03-11T03:32:12.315Z,0.00
2023-03-11T03:33:12.256Z,0.00
2023-03-11T03:34:12.239Z,0.00
2023-03-11T03:35:12.260Z,0.00
2023-03-11T03:36:12.311Z,0.00
2023-03-11T03:37:12.211Z,0.00
2023-03-11T03:38:12.199Z,0.00
2023-03-11T03:39:12.197Z,0.00
2023-03-11T03:40:12.168Z,0.00
2023-03-11T03:41:12.155Z,0.00
2023-03-11T03:42:12.151Z,0.00
2023-03-11T03:43:12.143Z,0.00
2023-03-11T03:44:12.140Z,0.00
2023-03-11T03:45:12.122Z,0.00
2023-03-11T03:46:12.142Z,0.00
2023-03-11T03:47:12.086Z,0.00
2023-03-11T03:48:12.070Z,0.00
2023-03-11T03:49:12.080Z,0.00
2023-03-11T03:50:12.065Z,0.00
2023-03-11T03:51:12.065Z,0.00
2023-03-11T03:52:12.040Z,0.00
2023-03-11T03:53:12.025Z,0.00
2023-03-11T03:54:12.019Z,0.00
2023-03-11T03:55:12.001Z,0.00
2023-03-11T03:56:12.005Z,0.00
2023-03-11T03:57:11.989Z,0.00
2023-03-11T03:58:11.969Z,0.00
2023-03-11T03:59:11.967Z,0.00
2023-03-11T04:00:11.937Z,0.00
2023-03-11T04:01:11.948Z,0.00
2023-03-11T04:02:12.026Z,0.00
2023-03-11T04:03:11.956Z,0.00
2023-03-11T04:04:11.908Z,0.00
2023-03-11T04:05:11.895Z,0.00
2023-03-11T04:06:11.884Z,0.00
2023-03-11T04:07:11.910Z,0.00
2023-03-11T04:08:11.847Z,0.00
2023-03-11T04:09:11.850Z,0.00
2023-03-11T04:10:11.844Z,0.00
2023-03-11T04:11:11.838Z,0.00
2023-03-11T04:12:11.807Z,0.00
2023-03-11T04:13:11.812Z,0.00
2023-03-11T04:14:11.815Z,0.00
2023-03-11T04:15:11.784Z,0.00
2023-03-11T04:16:11.778Z,0.00
2023-03-11T04:17:11.749Z,0.00
2023-03-11T04:18:11.755Z,0.00
2023-03-11T04:19:11.755Z,0.00
2023-03-11T04:20:11.721Z,0.00
2023-03-11T04:21:11.735Z,0.00
2023-03-11T04:22:11.706Z,0.00
2023-03-11T04:23:11.704Z,0.00
2023-03-11T04:24:11.698Z,0.00
2023-03-11T04:25:11.673Z,0.00
2023-03-11T04:26:11.665Z,0.00
2023-03-11T04:27:11.657Z,0.00
2023-03-11T04:28:11.645Z,0.00
2023-03-11T04:29:11.649Z,0.00
2023-03-11T04:30:11.618Z,0.00
2023-03-11T04:31:11.649Z,0.00
2023-03-11T04:32:11.620Z,0.00
2023-03-11T04:33:11.579Z,0.00
2023-03-11T04:34:11.571Z,0.00
2023-03-11T04:35:11.558Z,0.00
2023-03-11T04:36:11.552Z,0.00
2023-03-11T04:37:11.548Z,0.00
2023-03-11T04:38:11.512Z,0.00
2023-03-11T04:39:11.549Z,0.00
2023-03-11T04:40:11.501Z,0.00
2023-03-11T04:41:11.500Z,0.00
2023-03-11T04:42:11.480Z,0.00
2023-03-11T04:43:11.483Z,0.00
2023-03-11T04:44:11.461Z,0.00
2023-03-11T04:45:11.440Z,0.00
2023-03-11T04:46:11.465Z,0.00
2023-03-11T04:47:11.442Z,0.00
2023-03-11T04:48:11.418Z,0.00
2023-03-11T04:49:11.406Z,0.00
2023-03-11T04:50:11.399Z,0.00
2023-03-11T04:51:11.375Z,0.00
2023-03-11T04:52:11.354Z,0.00
2023-03-11T04:53:11.350Z,0.00
2023-03-11T04:54:11.345Z,0.00
2023-03-11T04:55:11.335Z,0.00
2023-03-11T04:56:11.318Z,0.00
2023-03-11T04:57:11.289Z,0.00
2023-03-11T04:58:11.283Z,0.00
2023-03-11T04:59:11.287Z,0.00
2023-03-11T05:00:11.283Z,0.00
2023-03-11T05:01:11.274Z,0.00
2023-03-11T05:02:12.923Z,0.00
2023-03-11T05:03:11.271Z,0.00
2023-03-11T05:04:11.284Z,0.00
2023-03-11T05:05:11.214Z,0.00
2023-03-11T05:06:11.198Z,0.00
2023-03-11T05:07:11.191Z,0.00
2023-03-11T05:08:11.171Z,0.00
2023-03-11T05:09:11.192Z,0.00
2023-03-11T05:10:11.169Z,0.00
2023-03-11T05:11:11.158Z,0.00
2023-03-11T05:12:11.127Z,0.00
2023-03-11T05:13:11.126Z,0.00
2023-03-11T05:14:11.136Z,0.00
2023-03-11T05:15:11.090Z,0.00
2023-03-11T05:16:11.244Z,0.00
2023-03-11T05:17:11.070Z,0.00
2023-03-11T05:18:11.077Z,0.00
2023-03-11T05:19:11.070Z,0.00
2023-03-11T05:20:11.070Z,0.00
2023-03-11T05:21:11.042Z,0.00
2023-03-11T05:22:11.043Z,0.00
2023-03-11T05:23:11.013Z,0.00
2023-03-11T05:24:11.032Z,0.00
2023-03-11T05:25:10.977Z,0.00
2023-03-11T05:26:10.973Z,0.00
2023-03-11T05:27:10.974Z,0.00
2023-03-11T05:28:10.957Z,4.00
2023-03-11T05:29:10.929Z,4.00
2023-03-11T05:30:10.943Z,0.00
2023-03-11T05:31:10.960Z,0.00
2023-03-11T05:32:10.917Z,4.00
2023-03-11T05:33:10.984Z,4.00
2023-03-11T05:34:10.881Z,4.00
2023-03-11T05:35:10.879Z,4.00
2023-03-11T05:36:10.867Z,4.00
2023-03-11T05:37:10.847Z,4.00
2023-03-11T05:38:10.917Z,4.00
2023-03-11T05:39:10.822Z,8.00
2023-03-11T05:40:10.847Z,12.00
2023-03-11T05:41:10.817Z,8.00
2023-03-11T05:42:10.814Z,16.00
2023-03-11T05:43:10.801Z,16.00
2023-03-11T05:44:10.771Z,20.00
2023-03-11T05:45:10.774Z,24.00
2023-03-11T05:46:10.788Z,28.00
2023-03-11T05:47:10.742Z,32.00
2023-03-11T05:48:10.741Z,32.00
2023-03-11T05:49:10.714Z,40.00
2023-03-11T05:50:10.731Z,44.00
2023-03-11T05:51:10.690Z,48.00
2023-03-11T05:52:10.688Z,52.00
2023-03-11T05:53:10.679Z,60.00
2023-03-11T05:54:10.658Z,68.00
2023-03-11T05:55:10.680Z,76.00
2023-03-11T05:56:10.649Z,84.00
2023-03-11T05:57:10.631Z,92.00
2023-03-11T05:58:10.656Z,100.00
2023-03-11T05:59:10.631Z,112.00
2023-03-11T06:00:10.603Z,116.00
2023-03-11T06:01:10.586Z,132.00
2023-03-11T06:02:10.567Z,144.00
2023-03-11T06:03:10.550Z,160.00
2023-03-11T06:04:10.710Z,172.00
2023-03-11T06:05:13.434Z,188.00
2023-03-11T06:06:10.533Z,204.00
2023-03-11T06:07:10.504Z,220.00
2023-03-11T06:08:10.516Z,232.00
2023-03-11T06:09:10.489Z,252.00
2023-03-11T06:10:10.506Z,276.00
2023-03-11T06:11:10.472Z,296.00
2023-03-11T06:12:10.451Z,316.00
2023-03-11T06:13:10.450Z,336.00
2023-03-11T06:14:10.431Z,364.00
2023-03-11T06:15:10.451Z,388.00
2023-03-11T06:16:10.484Z,412.00
2023-03-11T06:17:10.393Z,444.00
2023-03-11T06:18:10.399Z,464.00
2023-03-11T06:19:10.371Z,476.00
2023-03-11T06:20:10.393Z,500.00
2023-03-11T06:21:10.348Z,524.00
2023-03-11T06:22:10.344Z,564.00
2023-03-11T06:23:10.322Z,584.00
2023-03-11T06:24:10.329Z,596.00
2023-03-11T06:25:10.316Z,620.00
2023-03-11T06:26:10.307Z,676.00
2023-03-11T06:27:10.334Z,728.00
2023-03-11T06:28:10.291Z,768.00
2023-03-11T06:29:10.269Z,848.00
2023-03-11T06:30:10.272Z,928.00
2023-03-11T06:31:10.307Z,964.00
2023-03-11T06:32:10.234Z,1020.00
2023-03-11T06:33:10.225Z,1044.00
2023-03-11T06:34:10.221Z,1032.00
2023-03-11T06:35:10.204Z,1020.00
2023-03-11T06:36:10.273Z,1060.00
2023-03-11T06:37:10.165Z,1116.00
2023-03-11T06:38:10.171Z,1144.00
2023-03-11T06:39:10.150Z,1148.00
2023-03-11T06:40:10.173Z,1076.00
2023-03-11T06:41:10.128Z,1016.00
2023-03-11T06:42:10.115Z,1032.00
2023-03-11T06:43:10.112Z,1068.00
2023-03-11T06:44:10.090Z,1072.00
2023-03-11T06:45:10.112Z,1036.00
2023-03-11T06:46:10.148Z,1076.00
2023-03-11T06:47:10.087Z,1080.00
2023-03-11T06:48:10.065Z,1044.00
2023-03-11T06:49:10.044Z,1012.00
2023-03-11T06:50:10.038Z,976.00
2023-03-11T06:51:10.022Z,972.00
2023-03-11T06:52:10.001Z,852.00
2023-03-11T06:53:09.986Z,760.00
2023-03-11T06:54:09.978Z,740.00
2023-03-11T06:55:09.995Z,740.00
2023-03-11T06:56:09.963Z,768.00
2023-03-11T06:57:09.944Z,824.00
2023-03-11T06:58:09.934Z,864.00
2023-03-11T06:59:09.917Z,860.00
2023-03-11T07:00:09.928Z,836.00
2023-03-11T07:01:10.005Z,844.00
2023-03-11T07:02:09.890Z,912.00
2023-03-11T07:03:09.906Z,992.00
2023-03-11T07:04:09.902Z,1064.00
2023-03-11T07:05:09.868Z,1136.00
2023-03-11T07:06:09.870Z,1192.00
2023-03-11T07:07:09.834Z,1308.00
2023-03-11T07:08:09.841Z,1432.00
2023-03-11T07:09:09.819Z,1544.00
2023-03-11T07:10:09.856Z,1732.00
2023-03-11T07:11:09.789Z,1736.00
2023-03-11T07:12:09.796Z,1776.00
2023-03-11T07:13:09.766Z,1876.00
2023-03-11T07:14:09.762Z,2148.00
2023-03-11T07:15:09.740Z,2304.00
2023-03-11T07:16:09.805Z,2348.00
2023-03-11T07:17:09.727Z,2400.00
2023-03-11T07:18:09.713Z,2360.00
2023-03-11T07:19:09.720Z,2380.00
2023-03-11T07:20:09.705Z,2600.00
2023-03-11T07:21:09.688Z,2360.00
2023-03-11T07:22:09.668Z,2404.00
2023-03-11T07:23:09.664Z,2560.00
2023-03-11T07:24:09.668Z,2684.00
2023-03-11T07:25:09.628Z,2740.00
2023-03-11T07:26:09.649Z,2932.00
2023-03-11T07:27:09.618Z,3168.00
2023-03-11T07:28:09.597Z,3560.00
2023-03-11T07:29:09.584Z,4356.00
2023-03-11T07:30:09.574Z,2964.00
2023-03-11T07:31:09.574Z,2276.00
2023-03-11T07:32:09.659Z,3252.00
2023-03-11T07:33:09.536Z,2396.00
2023-03-11T07:34:09.546Z,3260.00
2023-03-11T07:35:09.637Z,3864.00
2023-03-11T07:36:09.582Z,2404.00
2023-03-11T07:37:09.503Z,3452.00
2023-03-11T07:38:09.488Z,3200.00
2023-03-11T07:39:09.469Z,2284.00
2023-03-11T07:40:09.464Z,3128.00
2023-03-11T07:41:09.488Z,3472.00
2023-03-11T07:42:09.439Z,3440.00
2023-03-11T07:43:09.422Z,3652.00
2023-03-11T07:44:09.988Z,3860.00
2023-03-11T07:45:09.413Z,3844.00
2023-03-11T07:46:09.434Z,3636.00
2023-03-11T07:47:09.423Z,3820.00
2023-03-11T07:48:09.378Z,3876.00
2023-03-11T07:49:09.368Z,4032.00
2023-03-11T07:50:09.362Z,4320.00
2023-03-11T07:51:09.375Z,4380.00
2023-03-11T07:52:09.353Z,4824.00
2023-03-11T07:53:09.327Z,5124.00
2023-03-11T07:54:09.305Z,5212.00
2023-03-11T07:55:09.301Z,5052.00
2023-03-11T07:56:09.295Z,5012.00
2023-03-11T07:57:09.287Z,5160.00
2023-03-11T07:58:09.280Z,5244.00
2023-03-11T07:59:09.253Z,5400.00
2023-03-11T08:00:09.252Z,5552.00
2023-03-11T08:01:09.225Z,5672.00
2023-03-11T08:02:09.272Z,5860.00
2023-03-11T08:03:09.210Z,6036.00
2023-03-11T08:04:09.201Z,6260.00
2023-03-11T08:05:09.189Z,6188.00
2023-03-11T08:06:09.183Z,6140.00
2023-03-11T08:07:09.209Z,6304.00
2023-03-11T08:08:09.160Z,6548.00
2023-03-11T08:09:09.163Z,6572.00
2023-03-11T08:10:09.134Z,6252.00
2023-03-11T08:11:09.107Z,6004.00
2023-03-11T08:12:09.136Z,5988.00
2023-03-11T08:13:09.083Z,5796.00
2023-03-11T08:14:09.107Z,6348.00
2023-03-11T08:15:09.059Z,6788.00
2023-03-11T08:16:09.208Z,7004.00
2023-03-11T08:17:09.069Z,7108.00
2023-03-11T08:18:11.035Z,7108.00
2023-03-11T08:19:09.018Z,7196.00
2023-03-11T08:20:09.037Z,7260.00
2023-03-11T08:21:09.011Z,7316.00
2023-03-11T08:22:09.002Z,7356.00
2023-03-11T08:23:09.006Z,7428.00
2023-03-11T08:24:08.964Z,7596.00
2023-03-11T08:25:08.961Z,7728.00
2023-03-11T08:26:08.948Z,7696.00
2023-03-11T08:27:08.959Z,7632.00
2023-03-11T08:28:08.913Z,7600.00
2023-03-11T08:29:08.910Z,7420.00
2023-03-11T08:30:08.914Z,7584.00
2023-03-11T08:31:08.924Z,7620.00
2023-03-11T08:32:09.209Z,7796.00
2023-03-11T08:33:08.874Z,7732.00
2023-03-11T08:34:08.844Z,8176.00
2023-03-11T08:35:08.851Z,8112.00
2023-03-11T08:36:08.928Z,8148.00
2023-03-11T08:37:08.821Z,8120.00
2023-03-11T08:38:08.830Z,8060.00
2023-03-11T08:39:08.894Z,8148.00
2023-03-11T08:40:08.791Z,8404.00
2023-03-11T08:41:08.782Z,8556.00
2023-03-11T08:42:08.754Z,8688.00
2023-03-11T08:43:08.775Z,8892.00
2023-03-11T08:44:08.745Z,9208.00
2023-03-11T08:45:08.751Z,7788.00
2023-03-11T08:46:08.803Z,8744.00
2023-03-11T08:47:08.712Z,9520.00
2023-03-11T08:48:08.698Z,9496.00
2023-03-11T08:49:08.701Z,9632.00
2023-03-11T08:50:08.675Z,10020.00
2023-03-11T08:51:08.669Z,9388.00
2023-03-11T08:52:08.639Z,10108.00
2023-03-11T08:53:08.646Z,10292.00
2023-03-11T08:54:08.642Z,10372.00
2023-03-11T08:55:08.644Z,10140.00
2023-03-11T08:56:08.591Z,10392.00
2023-03-11T08:57:08.599Z,10428.00
2023-03-11T08:58:08.582Z,10116.00
2023-03-11T08:59:08.605Z,10188.00
2023-03-11T09:00:08.544Z,10388.00
2023-03-11T09:01:08.541Z,10684.00
2023-03-11T09:02:08.522Z,10516.00
2023-03-11T09:03:08.615Z,10800.00
2023-03-11T09:04:08.524Z,9368.00
2023-03-11T09:05:08.493Z,10132.00
2023-03-11T09:06:08.590Z,9804.00
2023-03-11T09:07:08.486Z,9572.00
2023-03-11T09:08:08.470Z,9664.00
2023-03-11T09:09:08.467Z,9616.00
2023-03-11T09:10:08.444Z,9580.00
2023-03-11T09:11:08.462Z,9412.00
2023-03-11T09:12:08.408Z,9460.00
2023-03-11T09:13:08.414Z,9484.00
2023-03-11T09:14:08.415Z,9452.00
2023-03-11T09:15:08.393Z,9584.00
2023-03-11T09:16:08.396Z,9636.00
2023-03-11T09:17:08.358Z,9564.00
2023-03-11T09:18:08.341Z,9548.00
2023-03-11T09:19:08.736Z,9372.00
2023-03-11T09:20:08.333Z,9312.00
2023-03-11T09:21:08.310Z,9352.00
2023-03-11T09:22:08.313Z,9328.00
2023-03-11T09:23:08.303Z,9196.00
2023-03-11T09:24:08.285Z,9496.00
2023-03-11T09:25:08.299Z,9804.00
2023-03-11T09:26:08.269Z,10036.00
2023-03-11T09:27:08.285Z,10780.00
2023-03-11T09:28:08.232Z,11456.00
2023-03-11T09:29:08.236Z,12744.00
2023-03-11T09:30:08.218Z,13184.00
2023-03-11T09:31:08.226Z,12948.00
2023-03-11T09:32:08.200Z,12484.00
2023-03-11T09:33:08.180Z,10428.00
2023-03-11T09:34:08.175Z,5664.00
2023-03-11T09:35:08.175Z,4064.00
2023-03-11T09:36:08.136Z,3804.00
2023-03-11T09:37:08.144Z,3844.00
2023-03-11T09:38:08.115Z,4644.00
2023-03-11T09:39:08.108Z,5328.00
2023-03-11T09:40:08.106Z,5632.00
2023-03-11T09:41:08.098Z,5460.00
2023-03-11T09:42:08.081Z,5396.00
2023-03-11T09:43:08.089Z,5232.00
2023-03-11T09:44:08.080Z,4652.00
2023-03-11T09:45:08.067Z,4512.00
2023-03-11T09:46:08.031Z,4672.00
2023-03-11T09:47:08.075Z,4876.00
2023-03-11T09:48:08.015Z,4744.00
2023-03-11T09:49:08.010Z,4832.00
2023-03-11T09:50:07.995Z,4756.00
2023-03-11T09:51:08.096Z,4668.00
2023-03-11T09:52:07.955Z,4628.00
2023-03-11T09:53:07.962Z,4624.00
2023-03-11T09:54:07.955Z,5044.00
2023-03-11T09:55:07.959Z,5316.00
2023-03-11T09:56:07.956Z,5028.00
2023-03-11T09:57:07.909Z,4952.00
2023-03-11T09:58:07.886Z,5228.00
2023-03-11T09:59:07.911Z,5424.00
2023-03-11T10:00:07.893Z,5656.00
2023-03-11T10:01:07.869Z,5392.00
2023-03-11T10:02:07.960Z,4936.00
2023-03-11T10:03:07.909Z,4776.00
2023-03-11T10:04:07.834Z,4636.00
2023-03-11T10:05:07.823Z,4676.00
2023-03-11T10:06:07.813Z,5708.00
2023-03-11T10:07:07.792Z,4480.00
2023-03-11T10:08:07.776Z,4456.00
2023-03-11T10:09:07.784Z,4712.00
2023-03-11T10:10:07.772Z,9692.00
2023-03-11T10:11:07.759Z,9388.00
2023-03-11T10:12:07.731Z,8008.00
2023-03-11T10:13:07.733Z,8428.00
2023-03-11T10:14:07.706Z,9932.00
2023-03-11T10:15:07.747Z,10044.00
2023-03-11T10:16:07.780Z,8800.00
2023-03-11T10:17:07.697Z,8124.00
2023-03-11T10:18:07.656Z,7384.00
2023-03-11T10:19:07.650Z,8848.00
2023-03-11T10:20:07.664Z,10716.00
2023-03-11T10:21:07.642Z,11660.00
2023-03-11T10:22:07.611Z,12000.00
2023-03-11T10:23:07.608Z,13196.00
2023-03-11T10:24:07.594Z,13440.00
2023-03-11T10:25:07.643Z,13940.00
2023-03-11T10:26:07.571Z,14304.00
2023-03-11T10:27:07.560Z,15168.00
2023-03-11T10:28:07.557Z,14912.00
2023-03-11T10:29:07.566Z,12556.00
2023-03-11T10:30:07.549Z,6868.00
2023-03-11T10:31:07.541Z,6640.00
2023-03-11T10:32:07.511Z,6148.00
2023-03-11T10:33:07.490Z,5988.00
2023-03-11T10:34:07.477Z,5916.00
2023-03-11T10:35:07.487Z,5868.00
2023-03-11T10:36:07.553Z,5392.00
2023-03-11T10:37:07.445Z,5140.00
2023-03-11T10:38:07.441Z,5604.00
2023-03-11T10:39:07.454Z,5780.00
2023-03-11T10:40:07.430Z,5408.00
2023-03-11T10:41:07.420Z,5832.00
2023-03-11T10:42:07.394Z,6156.00
2023-03-11T10:43:07.385Z,7180.00
2023-03-11T10:44:07.363Z,8164.00
2023-03-11T10:45:07.403Z,11352.00
2023-03-11T10:46:07.373Z,10360.00
2023-03-11T10:47:07.367Z,7100.00
2023-03-11T10:48:07.316Z,6684.00
2023-03-11T10:49:07.326Z,8120.00
2023-03-11T10:50:07.312Z,8056.00
2023-03-11T10:51:07.286Z,10060.00
2023-03-11T10:52:07.272Z,11180.00
2023-03-11T10:53:07.273Z,11628.00
2023-03-11T10:54:07.261Z,9716.00
2023-03-11T10:55:07.260Z,9344.00
2023-03-11T10:56:07.234Z,7568.00
2023-03-11T10:57:07.223Z,10652.00
2023-03-11T10:58:07.218Z,10716.00
2023-03-11T10:59:07.227Z,10100.00
2023-03-11T11:00:07.219Z,9916.00
2023-03-11T11:01:07.230Z,10996.00
2023-03-11T11:02:07.178Z,11508.00
2023-03-11T11:03:07.177Z,12184.00
2023-03-11T11:04:07.161Z,12296.00
2023-03-11T11:05:07.217Z,11208.00
2023-03-11T11:06:07.127Z,11112.00
2023-03-11T11:07:07.139Z,10852.00
2023-03-11T11:08:07.163Z,9776.00
2023-03-11T11:09:07.104Z,9540.00
2023-03-11T11:10:07.071Z,9096.00
2023-03-11T11:11:07.086Z,8760.00
2023-03-11T11:12:07.065Z,8380.00
2023-03-11T11:13:07.054Z,7988.00
2023-03-11T11:14:07.051Z,7792.00
2023-03-11T11:15:07.018Z,7320.00
2023-03-11T11:16:07.006Z,7796.00
2023-03-11T11:17:07.030Z,7960.00
2023-03-11T11:18:07.034Z,8012.00
2023-03-11T11:19:07.000Z,7608.00
2023-03-11T11:20:07.000Z,7064.00
2023-03-11T11:21:06.977Z,6720.00
2023-03-11T11:22:06.968Z,6620.00
2023-03-11T11:23:06.943Z,6840.00
2023-03-11T11:24:06.914Z,6832.00
2023-03-11T11:25:06.958Z,6800.00
2023-03-11T11:26:06.892Z,6628.00
2023-03-11T11:27:06.917Z,6580.00
2023-03-11T11:28:06.882Z,7316.00
2023-03-11T11:29:08.892Z,7740.00
2023-03-11T11:30:06.844Z,7648.00
2023-03-11T11:31:06.917Z,7580.00
2023-03-11T11:32:06.826Z,7424.00
2023-03-11T11:33:06.842Z,7172.00
2023-03-11T11:34:06.800Z,6828.00
2023-03-11T11:35:06.830Z,6428.00
2023-03-11T11:36:06.790Z,6148.00
2023-03-11T11:37:06.782Z,5912.00
2023-03-11T11:38:06.784Z,5480.00
2023-03-11T11:39:06.744Z,5228.00
2023-03-11T11:40:06.732Z,5328.00
2023-03-11T11:41:06.736Z,5572.00
2023-03-11T11:42:06.719Z,5824.00
2023-03-11T11:43:06.712Z,5880.00
2023-03-11T11:44:06.684Z,5796.00
2023-03-11T11:45:06.689Z,5772.00
2023-03-11T11:46:06.725Z,5988.00
2023-03-11T11:47:06.708Z,5988.00
2023-03-11T11:48:06.654Z,5904.00
2023-03-11T11:49:06.631Z,5876.00
2023-03-11T11:50:06.613Z,5828.00
2023-03-11T11:51:06.644Z,5700.00
2023-03-11T11:52:06.590Z,5752.00
2023-03-11T11:53:06.608Z,5908.00
2023-03-11T11:54:06.585Z,6044.00
2023-03-11T11:55:06.571Z,6264.00
2023-03-11T11:56:06.547Z,6344.00
2023-03-11T11:57:06.559Z,6544.00
2023-03-11T11:58:06.538Z,7028.00
2023-03-11T11:59:06.538Z,7336.00
2023-03-11T12:00:06.535Z,10408.00
2023-03-11T12:01:06.495Z,9468.00
2023-03-11T12:02:06.480Z,6196.00
2023-03-11T12:03:06.495Z,6856.00
2023-03-11T12:04:06.470Z,7160.00
2023-03-11T12:05:06.482Z,6996.00
2023-03-11T12:06:06.441Z,6336.00
2023-03-11T12:07:06.447Z,5360.00
2023-03-11T12:08:06.408Z,5184.00
2023-03-11T12:09:06.431Z,5256.00
2023-03-11T12:10:21.237Z,5316.00
2023-03-11T12:11:07.408Z,5628.00
2023-03-11T12:12:06.416Z,5096.00
2023-03-11T12:13:06.365Z,6104.00
2023-03-11T12:14:06.363Z,6644.00
2023-03-11T12:15:06.332Z,6628.00
2023-03-11T12:16:06.412Z,6660.00
2023-03-11T12:17:06.308Z,6448.00
2023-03-11T12:18:06.305Z,5860.00
2023-03-11T12:19:06.302Z,5120.00
2023-03-11T12:20:06.281Z,4460.00
2023-03-11T12:21:06.274Z,4424.00
2023-03-11T12:22:06.258Z,4560.00
2023-03-11T12:23:06.262Z,4936.00
2023-03-11T12:24:06.249Z,4936.00
2023-03-11T12:25:06.241Z,4696.00
2023-03-11T12:26:06.214Z,4416.00
2023-03-11T12:27:06.206Z,4160.00
2023-03-11T12:28:06.177Z,4272.00
2023-03-11T12:29:06.193Z,4448.00
2023-03-11T12:30:06.158Z,4972.00
2023-03-11T12:31:06.223Z,5644.00
2023-03-11T12:32:06.153Z,5436.00
2023-03-11T12:33:06.127Z,4584.00
2023-03-11T12:34:06.143Z,3956.00
2023-03-11T12:35:06.127Z,3704.00
2023-03-11T12:36:06.261Z,3416.00
2023-03-11T12:37:06.092Z,3552.00